• Join FlightAware (Why Join?)
  • Login
  • US Flag 
03:20AM EDT


 

Airport Tracker/Info


-or-


 

Live Flight TrackerFlight Track Log ✈ FLG4222 ✈ 04-Oct-2013 ✈ KDTW - KBGM

Flight Track Log - Related Links

Times and Time Zones

All times are in EDT time to prevent confusion due to time zone crossing. See the FLG4222 flight status page for this flight to view local times or setup timezone preferences in your user account.

Time Position Orientation Groundspeed Altitude Reporting Facility
EDT Latitude Longitude Course Direction KTS MPH feet Rate Location/Type
10:55AM 42.2061 -83.3672 94° East 160 184 1,200  Level Cleveland Center
10:56AM 42.1828 -83.3694 184° South 191 220 2,100 1,920 Climbing Cleveland Center
10:57AM 42.1328 -83.3600 172° South 203 234 4,000 2,340 Climbing Cleveland Center
10:57AM 42.1208 -83.3578 172° South 215 247 4,500 1,920 Climbing Cleveland Center
10:58AM 42.0725 -83.3417 166° South 227 261 6,000 2,100 Climbing Cleveland Center
10:59AM 42.0578 -83.2472 102° East 289 333 8,700 1,920 Climbing Cleveland Center
11:00AM 42.0992 -83.1444 61° Northeast 314 361 10,000 1,320 Climbing Cleveland Center
11:01AM 42.2373 -82.4520 94° East  Level Estimated
11:01AM 42.1439 -83.0300 62° Northeast 346 398 11,500  Level Cleveland Center
11:02AM 42.1983 -82.8889 62° Northeast 357 411 13,400 1,320 Climbing Cleveland Center
11:03AM 42.2492 -82.7597 62° Northeast 390 449 14,300 900 Climbing Cleveland Center
11:04AM 42.3008 -82.6247 63° Northeast 404 465 15,300 960 Climbing Cleveland Center
11:05AM 42.3550 -82.4858 62° Northeast 413 475 16,300 960 Climbing Cleveland Center
11:06AM 42.3625 -82.3272 86° East 432 497 17,400 1,020 Climbing Cleveland Center
11:07AM 42.3542 -82.1325 93° East 433 498 18,500 960 Climbing Cleveland Center
11:08AM 42.3481 -81.9850 93° East 434 499 19,400 900 Climbing Cleveland Center
11:09AM 42.3414 -81.8194 93° East 435 501 20,400 1,020 Climbing Cleveland Center
11:10AM 42.3319 -81.6275 94° East 435 501 21,600 720 Climbing Cleveland Center
11:11AM 42.3239 -81.4619 94° East 437 503 22,000 660 Climbing Cleveland Center
11:12AM 42.3164 -81.2908 93° East 447 514 23,000 960 Climbing Cleveland Center
11:13AM 42.3075 -81.1228 94° East 446 513 24,100 960 Climbing Cleveland Center
11:14AM 42.2989 -80.9547 94° East 443 510 25,100 960 Climbing Cleveland Center
11:15AM 42.2900 -80.7858 94° East 447 514 26,100 900 Climbing Cleveland Center
11:16AM 42.2814 -80.6214 94° East 435 501 27,000 420 Climbing Cleveland Center
11:17AM 42.2708 -80.4489 95° East 452 520 27,000  Level Cleveland Center
11:18AM 42.2606 -80.2394 94° East 472 543 27,000  Level Cleveland Center
11:19AM 42.2492 -80.0553 95° East 484 557 27,000  Level Cleveland Center
11:20AM 42.2400 -79.8867 94° East 487 560 27,000  Level Cleveland Center
11:21AM 42.2286 -79.7050 95° East 490 564 27,000  Level Cleveland Center
11:22AM 42.2128 -79.4878 96° East 489 563 27,000  Level Cleveland Center
11:24AM 42.2000 -79.3017 95° East 494 568 27,000  Level Cleveland Center
11:25AM 42.1889 -79.1172 95° East 496 571 27,000  Level Cleveland Center
11:26AM 42.1925 -78.9306 88° East 498 573 27,000  Level Cleveland Center
11:27AM 42.1964 -78.7456 88° East 497 572 27,000 -240 Level Cleveland Center
11:28AM 42.2000 -78.5594 88° East 497 572 26,600 -1,140 Descending Cleveland Center
11:29AM 42.2028 -78.3394 89° East 495 570 24,700 -1,680 Descending Cleveland Center
11:30AM 42.2056 -78.1589 89° East 490 564 23,200 -1,500 Descending Cleveland Center
11:31AM 42.2067 -77.9822 89° East 481 554 21,700 -1,440 Descending Cleveland Center
11:32AM 42.2083 -77.8069 89° East 476 548 20,300 -1,440 Descending Cleveland Center
11:33AM 42.2094 -77.6331 89° East 472 543 18,800 -1,620 Descending Cleveland Center
11:34AM 42.2111 -77.4344 89° East 452 520 17,100 -900 Descending Cleveland Center
11:35AM 42.2111 -77.2692 90° East 445 512 17,000 -120 Descending Cleveland Center
11:36AM 42.2108 -77.0981 90° East 453 521 16,900 -540 Descending New York Center
11:37AM 42.2092 -76.9300 91° East 448 516 16,000 -1,260 Descending New York Center
11:38AM 42.2122 -76.7767 88° East 429 494 14,400 -1,680 Descending Cleveland Center
11:39AM 42.1881 -76.5961 100° East 412 474 12,600 -1,800 Descending Cleveland Center
11:40AM 42.1611 -76.4636 105° East 372 428 10,800 -1,920 Descending Cleveland Center
11:41AM 42.1397 -76.3586 105° East 351 404 8,900 -2,100 Descending New York Center
11:42AM 42.1089 -76.2553 112° Southeast 324 373 6,900 -1,920 Descending New York Center
11:43AM 42.0739 -76.1603 116° Southeast 297 342 5,100 -960 Descending New York Center
11:44AM 42.0403 -76.0736 118° Southeast 287 330 5,000 -60 Descending New York Center
11:45AM 42.0028 -75.9786 118° Southeast 282 325 5,000 -540 Level New York Center
11:46AM 42.0044 -75.8894 89° East 228 262 4,000 -600 Descending New York Center
11:47AM 42.0436 -75.8533 34° Northeast 174 200 3,900 -60 Descending New York Center
11:48AM 42.0903 -75.8794 337° Northwest 125 144 3,900 -300 Level New York Center
11:49AM 42.1183 -75.9094 322° Northwest 116 133 3,400 -600 Descending New York Center
11:50AM 42.1503 -75.9372 327° Northwest 126 145 2,700 -780 Descending New York Center
11:51AM 42.1847 -75.9594 334° Northwest 134 154 1,900 -420 Descending New York Center
11:52AM 42.2106 -75.9894 319° Northwest 134 154 1,900  Level New York Center